sensor_id;sensor_type;location;lat;lon;timestamp;temperature;humidity
23637;DHT22;11995;50.842;4.456;2023-02-28T00:01:24;1.70;99.90
23637;DHT22;11995;50.842;4.456;2023-02-28T00:03:51;1.70;99.90
23637;DHT22;11995;50.842;4.456;2023-02-28T00:06:19;1.70;99.90
23637;DHT22;11995;50.842;4.456;2023-02-28T00:08:47;1.70;99.90
23637;DHT22;11995;50.842;4.456;2023-02-28T00:11:16;1.50;99.90
23637;DHT22;11995;50.842;4.456;2023-02-28T00:13:47;1.40;99.90
23637;DHT22;11995;50.842;4.456;2023-02-28T00:16:20;1.60;99.90
23637;DHT22;11995;50.842;4.456;2023-02-28T00:18:48;1.60;99.90
23637;DHT22;11995;50.842;4.456;2023-02-28T00:21:16;1.60;99.90
23637;DHT22;11995;50.842;4.456;2023-02-28T00:23:43;1.70;99.90
23637;DHT22;11995;50.842;4.456;2023-02-28T00:26:11;1.60;99.90
23637;DHT22;11995;50.842;4.456;2023-02-28T00:28:39;1.60;99.90
23637;DHT22;11995;50.842;4.456;2023-02-28T00:31:07;1.50;99.90
23637;DHT22;11995;50.842;4.456;2023-02-28T00:33:34;1.50;99.90
23637;DHT22;11995;50.842;4.456;2023-02-28T00:36:10;1.40;99.90
23637;DHT22;11995;50.842;4.456;2023-02-28T00:38:39;1.40;99.90
23637;DHT22;11995;50.842;4.456;2023-02-28T00:41:07;1.20;99.90
23637;DHT22;11995;50.842;4.456;2023-02-28T00:43:36;1.20;99.90
23637;DHT22;11995;50.842;4.456;2023-02-28T00:46:05;1.30;99.90
23637;DHT22;11995;50.842;4.456;2023-02-28T00:48:32;1.40;99.90
23637;DHT22;11995;50.842;4.456;2023-02-28T00:51:00;1.50;99.90
23637;DHT22;11995;50.842;4.456;2023-02-28T00:53:29;1.60;99.90
23637;DHT22;11995;50.842;4.456;2023-02-28T00:55:59;1.70;99.90
23637;DHT22;11995;50.842;4.456;2023-02-28T00:58:27;1.80;99.90
23637;DHT22;11995;50.842;4.456;2023-02-28T01:00:55;1.80;99.90
23637;DHT22;11995;50.842;4.456;2023-02-28T01:03:22;1.70;99.90
23637;DHT22;11995;50.842;4.456;2023-02-28T01:05:51;1.80;99.90
23637;DHT22;11995;50.842;4.456;2023-02-28T01:08:19;1.90;99.90
23637;DHT22;11995;50.842;4.456;2023-02-28T01:10:47;1.80;99.90
23637;DHT22;11995;50.842;4.456;2023-02-28T01:13:15;1.80;99.90
23637;DHT22;11995;50.842;4.456;2023-02-28T01:15:50;1.80;99.90
23637;DHT22;11995;50.842;4.456;2023-02-28T01:18:19;1.70;99.90
23637;DHT22;11995;50.842;4.456;2023-02-28T01:20:47;1.60;99.90
23637;DHT22;11995;50.842;4.456;2023-02-28T01:23:15;1.50;99.90
23637;DHT22;11995;50.842;4.456;2023-02-28T01:25:43;1.40;99.90
23637;DHT22;11995;50.842;4.456;2023-02-28T01:28:10;1.30;99.90
23637;DHT22;11995;50.842;4.456;2023-02-28T01:30:38;1.20;99.90
23637;DHT22;11995;50.842;4.456;2023-02-28T01:33:06;1.20;99.90
23637;DHT22;11995;50.842;4.456;2023-02-28T01:35:35;1.20;99.90
23637;DHT22;11995;50.842;4.456;2023-02-28T01:38:03;1.20;99.90
23637;DHT22;11995;50.842;4.456;2023-02-28T01:40:33;1.10;99.90
23637;DHT22;11995;50.842;4.456;2023-02-28T01:43:00;1.00;99.90
23637;DHT22;11995;50.842;4.456;2023-02-28T01:45:32;0.80;99.90
23637;DHT22;11995;50.842;4.456;2023-02-28T01:48:04;0.70;99.90
23637;DHT22;11995;50.842;4.456;2023-02-28T01:50:34;0.80;99.90
23637;DHT22;11995;50.842;4.456;2023-02-28T01:53:04;0.90;99.90
23637;DHT22;11995;50.842;4.456;2023-02-28T01:55:33;0.90;99.90
23637;DHT22;11995;50.842;4.456;2023-02-28T01:58:04;1.10;99.90
23637;DHT22;11995;50.842;4.456;2023-02-28T02:00:32;1.20;99.90
23637;DHT22;11995;50.842;4.456;2023-02-28T02:03:06;1.20;99.90
23637;DHT22;11995;50.842;4.456;2023-02-28T02:05:31;0.90;99.90
23637;DHT22;11995;50.842;4.456;2023-02-28T02:08:05;1.00;99.90
23637;DHT22;11995;50.842;4.456;2023-02-28T02:10:49;1.20;99.90
23637;DHT22;11995;50.842;4.456;2023-02-28T02:25:12;1.20;99.90
23637;DHT22;11995;50.842;4.456;2023-02-28T02:30:33;1.20;99.90
23637;DHT22;11995;50.842;4.456;2023-02-28T02:38:48;1.10;99.90
23637;DHT22;11995;50.842;4.456;2023-02-28T02:41:33;1.10;99.90
23637;DHT22;11995;50.842;4.456;2023-02-28T02:44:06;1.10;99.90
23637;DHT22;11995;50.842;4.456;2023-02-28T02:46:37;1.20;99.90
23637;DHT22;11995;50.842;4.456;2023-02-28T02:49:06;1.20;99.90
23637;DHT22;11995;50.842;4.456;2023-02-28T02:51:35;1.10;99.90
23637;DHT22;11995;50.842;4.456;2023-02-28T02:54:14;1.10;99.90
23637;DHT22;11995;50.842;4.456;2023-02-28T02:56:39;1.10;99.90
23637;DHT22;11995;50.842;4.456;2023-02-28T02:59:12;1.00;99.90
23637;DHT22;11995;50.842;4.456;2023-02-28T03:01:42;0.90;99.90
23637;DHT22;11995;50.842;4.456;2023-02-28T03:04:12;0.90;99.90
23637;DHT22;11995;50.842;4.456;2023-02-28T03:06:40;0.90;99.90
23637;DHT22;11995;50.842;4.456;2023-02-28T03:09:07;1.00;99.90
23637;DHT22;11995;50.842;4.456;2023-02-28T03:11:36;0.90;99.90
23637;DHT22;11995;50.842;4.456;2023-02-28T03:16:47;0.90;99.90
23637;DHT22;11995;50.842;4.456;2023-02-28T03:19:32;0.80;99.90
23637;DHT22;11995;50.842;4.456;2023-02-28T03:27:54;0.70;99.90
23637;DHT22;11995;50.842;4.456;2023-02-28T03:32:57;0.70;99.90
23637;DHT22;11995;50.842;4.456;2023-02-28T03:35:34;0.70;99.90
23637;DHT22;11995;50.842;4.456;2023-02-28T03:38:11;0.60;99.90
23637;DHT22;11995;50.842;4.456;2023-02-28T03:40:42;0.60;99.90
23637;DHT22;11995;50.842;4.456;2023-02-28T03:43:12;0.50;99.90
23637;DHT22;11995;50.842;4.456;2023-02-28T03:45:42;0.50;99.90
23637;DHT22;11995;50.842;4.456;2023-02-28T03:48:22;0.50;99.90
23637;DHT22;11995;50.842;4.456;2023-02-28T03:50:53;0.40;99.90
23637;DHT22;11995;50.842;4.456;2023-02-28T03:53:37;0.30;99.90
23637;DHT22;11995;50.842;4.456;2023-02-28T03:56:15;0.30;99.90
23637;DHT22;11995;50.842;4.456;2023-02-28T03:59:04;0.30;99.90
23637;DHT22;11995;50.842;4.456;2023-02-28T04:01:37;0.30;99.90
23637;DHT22;11995;50.842;4.456;2023-02-28T04:04:05;0.20;99.90
23637;DHT22;11995;50.842;4.456;2023-02-28T04:06:34;0.20;99.90
23637;DHT22;11995;50.842;4.456;2023-02-28T04:09:03;0.20;99.90
23637;DHT22;11995;50.842;4.456;2023-02-28T04:11:41;0.20;99.90
23637;DHT22;11995;50.842;4.456;2023-02-28T04:14:11;0.30;99.90
23637;DHT22;11995;50.842;4.456;2023-02-28T04:16:41;0.30;99.90
23637;DHT22;11995;50.842;4.456;2023-02-28T04:19:10;0.40;99.90
23637;DHT22;11995;50.842;4.456;2023-02-28T04:21:40;0.40;99.90
23637;DHT22;11995;50.842;4.456;2023-02-28T04:24:13;0.40;99.90
23637;DHT22;11995;50.842;4.456;2023-02-28T04:26:46;0.40;99.90
23637;DHT22;11995;50.842;4.456;2023-02-28T04:29:19;0.50;99.90
23637;DHT22;11995;50.842;4.456;2023-02-28T04:31:47;0.40;99.90
23637;DHT22;11995;50.842;4.456;2023-02-28T04:34:14;0.40;99.90
23637;DHT22;11995;50.842;4.456;2023-02-28T04:36:42;0.40;99.90
23637;DHT22;11995;50.842;4.456;2023-02-28T04:39:10;0.50;99.90
23637;DHT22;11995;50.842;4.456;2023-02-28T04:41:38;0.50;99.90
23637;DHT22;11995;50.842;4.456;2023-02-28T04:44:07;0.50;99.90
23637;DHT22;11995;50.842;4.456;2023-02-28T04:46:34;0.50;99.90
23637;DHT22;11995;50.842;4.456;2023-02-28T04:49:02;0.50;99.90
23637;DHT22;11995;50.842;4.456;2023-02-28T04:51:29;0.50;99.90
23637;DHT22;11995;50.842;4.456;2023-02-28T04:53:57;0.40;99.90
23637;DHT22;11995;50.842;4.456;2023-02-28T04:56:25;0.40;99.90
23637;DHT22;11995;50.842;4.456;2023-02-28T04:58:52;0.40;99.90
23637;DHT22;11995;50.842;4.456;2023-02-28T05:01:24;0.40;99.90
23637;DHT22;11995;50.842;4.456;2023-02-28T05:03:53;0.50;99.90
23637;DHT22;11995;50.842;4.456;2023-02-28T05:06:22;0.50;99.90
23637;DHT22;11995;50.842;4.456;2023-02-28T05:08:51;0.50;99.90
23637;DHT22;11995;50.842;4.456;2023-02-28T05:11:29;0.60;99.90
23637;DHT22;11995;50.842;4.456;2023-02-28T05:13:49;0.60;99.90
23637;DHT22;11995;50.842;4.456;2023-02-28T05:16:17;0.50;99.90
23637;DHT22;11995;50.842;4.456;2023-02-28T05:18:45;0.60;99.90
23637;DHT22;11995;50.842;4.456;2023-02-28T05:21:22;0.60;99.90
23637;DHT22;11995;50.842;4.456;2023-02-28T05:23:47;0.70;99.90
23637;DHT22;11995;50.842;4.456;2023-02-28T05:26:14;0.60;99.90
23637;DHT22;11995;50.842;4.456;2023-02-28T05:28:42;0.70;99.90
23637;DHT22;11995;50.842;4.456;2023-02-28T05:31:13;0.70;99.90
23637;DHT22;11995;50.842;4.456;2023-02-28T05:33:40;0.60;99.90
23637;DHT22;11995;50.842;4.456;2023-02-28T05:36:08;0.60;99.90
23637;DHT22;11995;50.842;4.456;2023-02-28T05:38:35;0.70;99.90
23637;DHT22;11995;50.842;4.456;2023-02-28T05:41:07;0.90;99.90
23637;DHT22;11995;50.842;4.456;2023-02-28T05:43:36;1.00;99.90
23637;DHT22;11995;50.842;4.456;2023-02-28T05:46:06;1.00;99.90
23637;DHT22;11995;50.842;4.456;2023-02-28T05:48:35;1.00;99.90
23637;DHT22;11995;50.842;4.456;2023-02-28T05:51:04;1.10;99.90
23637;DHT22;11995;50.842;4.456;2023-02-28T05:53:33;1.30;99.90
23637;DHT22;11995;50.842;4.456;2023-02-28T05:56:00;1.30;99.90
23637;DHT22;11995;50.842;4.456;2023-02-28T05:58:28;1.40;99.90
23637;DHT22;11995;50.842;4.456;2023-02-28T06:00:57;1.30;99.90
23637;DHT22;11995;50.842;4.456;2023-02-28T06:03:25;1.20;99.90
23637;DHT22;11995;50.842;4.456;2023-02-28T06:05:53;1.20;99.90
23637;DHT22;11995;50.842;4.456;2023-02-28T06:08:21;1.30;99.90
23637;DHT22;11995;50.842;4.456;2023-02-28T06:10:49;1.20;99.90
23637;DHT22;11995;50.842;4.456;2023-02-28T06:13:16;1.10;99.90
23637;DHT22;11995;50.842;4.456;2023-02-28T06:15:44;1.10;99.90
23637;DHT22;11995;50.842;4.456;2023-02-28T06:18:12;1.20;99.90
23637;DHT22;11995;50.842;4.456;2023-02-28T06:20:39;1.20;99.90
23637;DHT22;11995;50.842;4.456;2023-02-28T06:23:08;1.20;99.90
23637;DHT22;11995;50.842;4.456;2023-02-28T06:25:36;0.90;99.90
23637;DHT22;11995;50.842;4.456;2023-02-28T06:28:03;0.80;99.90
23637;DHT22;11995;50.842;4.456;2023-02-28T06:30:31;0.90;99.90
23637;DHT22;11995;50.842;4.456;2023-02-28T06:33:00;0.80;99.90
23637;DHT22;11995;50.842;4.456;2023-02-28T06:35:27;0.70;99.90
23637;DHT22;11995;50.842;4.456;2023-02-28T06:37:55;0.60;99.90
23637;DHT22;11995;50.842;4.456;2023-02-28T06:40:23;0.80;99.90
23637;DHT22;11995;50.842;4.456;2023-02-28T06:42:51;1.00;99.90
23637;DHT22;11995;50.842;4.456;2023-02-28T06:45:18;1.00;99.90
23637;DHT22;11995;50.842;4.456;2023-02-28T06:47:46;1.10;99.90
23637;DHT22;11995;50.842;4.456;2023-02-28T06:50:16;1.20;99.90
23637;DHT22;11995;50.842;4.456;2023-02-28T06:52:48;1.20;99.90
23637;DHT22;11995;50.842;4.456;2023-02-28T06:55:18;1.10;99.90
23637;DHT22;11995;50.842;4.456;2023-02-28T06:57:46;1.10;99.90
23637;DHT22;11995;50.842;4.456;2023-02-28T07:00:14;1.20;99.90
23637;DHT22;11995;50.842;4.456;2023-02-28T07:02:42;1.30;99.90
23637;DHT22;11995;50.842;4.456;2023-02-28T07:05:09;1.50;99.90
23637;DHT22;11995;50.842;4.456;2023-02-28T07:07:38;1.50;99.90
23637;DHT22;11995;50.842;4.456;2023-02-28T07:10:10;1.50;99.90
23637;DHT22;11995;50.842;4.456;2023-02-28T07:12:39;1.60;99.90
23637;DHT22;11995;50.842;4.456;2023-02-28T07:15:07;1.40;99.90
23637;DHT22;11995;50.842;4.456;2023-02-28T07:17:35;1.60;99.90
23637;DHT22;11995;50.842;4.456;2023-02-28T07:20:02;1.80;99.90
23637;DHT22;11995;50.842;4.456;2023-02-28T07:22:32;1.90;99.90
23637;DHT22;11995;50.842;4.456;2023-02-28T07:24:59;1.80;99.90
23637;DHT22;11995;50.842;4.456;2023-02-28T07:27:26;2.00;99.90
23637;DHT22;11995;50.842;4.456;2023-02-28T07:29:54;2.10;99.90
23637;DHT22;11995;50.842;4.456;2023-02-28T07:32:22;2.10;99.90
23637;DHT22;11995;50.842;4.456;2023-02-28T07:34:49;2.20;99.90
23637;DHT22;11995;50.842;4.456;2023-02-28T07:37:17;2.40;99.90
23637;DHT22;11995;50.842;4.456;2023-02-28T07:39:44;2.40;99.90
23637;DHT22;11995;50.842;4.456;2023-02-28T07:42:12;2.40;99.90
23637;DHT22;11995;50.842;4.456;2023-02-28T07:44:40;2.60;99.90
23637;DHT22;11995;50.842;4.456;2023-02-28T07:47:10;2.60;99.90
23637;DHT22;11995;50.842;4.456;2023-02-28T07:49:39;2.40;99.90
23637;DHT22;11995;50.842;4.456;2023-02-28T07:52:07;2.40;99.90
23637;DHT22;11995;50.842;4.456;2023-02-28T07:54:34;2.30;99.90
23637;DHT22;11995;50.842;4.456;2023-02-28T07:57:02;2.40;99.90
23637;DHT22;11995;50.842;4.456;2023-02-28T07:59:29;2.50;99.90
23637;DHT22;11995;50.842;4.456;2023-02-28T08:01:57;2.40;99.90
23637;DHT22;11995;50.842;4.456;2023-02-28T08:04:25;2.40;99.90
23637;DHT22;11995;50.842;4.456;2023-02-28T08:06:53;2.20;99.90
23637;DHT22;11995;50.842;4.456;2023-02-28T08:09:22;2.20;99.90
23637;DHT22;11995;50.842;4.456;2023-02-28T08:11:50;2.20;99.90
23637;DHT22;11995;50.842;4.456;2023-02-28T08:14:17;2.20;99.90
23637;DHT22;11995;50.842;4.456;2023-02-28T08:16:45;2.20;99.90
23637;DHT22;11995;50.842;4.456;2023-02-28T08:19:12;2.40;99.90
23637;DHT22;11995;50.842;4.456;2023-02-28T08:21:40;2.50;99.90
23637;DHT22;11995;50.842;4.456;2023-02-28T08:24:07;2.60;99.90
23637;DHT22;11995;50.842;4.456;2023-02-28T08:26:35;2.60;99.90
23637;DHT22;11995;50.842;4.456;2023-02-28T08:29:04;2.60;99.90
23637;DHT22;11995;50.842;4.456;2023-02-28T08:31:31;2.70;99.90
23637;DHT22;11995;50.842;4.456;2023-02-28T08:34:04;3.00;99.90
23637;DHT22;11995;50.842;4.456;2023-02-28T08:36:30;3.20;99.90
23637;DHT22;11995;50.842;4.456;2023-02-28T08:38:58;3.10;99.90
23637;DHT22;11995;50.842;4.456;2023-02-28T08:41:26;3.20;99.90
23637;DHT22;11995;50.842;4.456;2023-02-28T08:43:54;3.10;99.90
23637;DHT22;11995;50.842;4.456;2023-02-28T08:46:22;2.80;99.90
23637;DHT22;11995;50.842;4.456;2023-02-28T08:48:57;2.80;99.90
23637;DHT22;11995;50.842;4.456;2023-02-28T08:51:22;2.70;99.90
23637;DHT22;11995;50.842;4.456;2023-02-28T08:53:51;2.80;99.90
23637;DHT22;11995;50.842;4.456;2023-02-28T08:56:19;2.60;99.90
23637;DHT22;11995;50.842;4.456;2023-02-28T08:58:49;2.60;99.90
23637;DHT22;11995;50.842;4.456;2023-02-28T09:01:18;2.70;99.90
23637;DHT22;11995;50.842;4.456;2023-02-28T09:03:48;2.70;99.90
23637;DHT22;11995;50.842;4.456;2023-02-28T09:06:18;2.70;99.90
23637;DHT22;11995;50.842;4.456;2023-02-28T09:08:46;2.70;99.90
23637;DHT22;11995;50.842;4.456;2023-02-28T09:11:14;2.80;99.90
23637;DHT22;11995;50.842;4.456;2023-02-28T09:13:42;2.70;99.90
23637;DHT22;11995;50.842;4.456;2023-02-28T09:16:12;2.60;99.90
23637;DHT22;11995;50.842;4.456;2023-02-28T09:18:42;2.60;99.90
23637;DHT22;11995;50.842;4.456;2023-02-28T09:21:12;2.70;99.90
23637;DHT22;11995;50.842;4.456;2023-02-28T09:23:42;3.00;99.90
23637;DHT22;11995;50.842;4.456;2023-02-28T09:26:15;3.10;99.90
23637;DHT22;11995;50.842;4.456;2023-02-28T09:28:42;3.00;99.90
23637;DHT22;11995;50.842;4.456;2023-02-28T09:31:17;2.80;99.90
23637;DHT22;11995;50.842;4.456;2023-02-28T09:33:45;2.70;99.90
23637;DHT22;11995;50.842;4.456;2023-02-28T09:36:13;2.60;99.90
23637;DHT22;11995;50.842;4.456;2023-02-28T09:38:40;2.60;99.90
23637;DHT22;11995;50.842;4.456;2023-02-28T09:41:21;2.70;99.90
23637;DHT22;11995;50.842;4.456;2023-02-28T09:46:39;2.60;99.90
23637;DHT22;11995;50.842;4.456;2023-02-28T09:49:14;2.70;99.90
23637;DHT22;11995;50.842;4.456;2023-02-28T09:54:24;2.60;99.90
23637;DHT22;11995;50.842;4.456;2023-02-28T09:57:08;2.60;99.90
23637;DHT22;11995;50.842;4.456;2023-02-28T10:04:54;2.70;99.90
23637;DHT22;11995;50.842;4.456;2023-02-28T10:10:19;3.10;99.90
23637;DHT22;11995;50.842;4.456;2023-02-28T10:12:47;3.20;99.90
23637;DHT22;11995;50.842;4.456;2023-02-28T10:15:17;3.20;99.90
23637;DHT22;11995;50.842;4.456;2023-02-28T10:17:47;3.10;99.90
23637;DHT22;11995;50.842;4.456;2023-02-28T10:20:20;3.10;99.90
23637;DHT22;11995;50.842;4.456;2023-02-28T10:23:08;3.40;99.90
23637;DHT22;11995;50.842;4.456;2023-02-28T10:25:36;3.50;99.90
23637;DHT22;11995;50.842;4.456;2023-02-28T10:28:14;3.50;99.90
23637;DHT22;11995;50.842;4.456;2023-02-28T10:30:47;3.40;99.90
23637;DHT22;11995;50.842;4.456;2023-02-28T10:35:47;3.50;99.20
23637;DHT22;11995;50.842;4.456;2023-02-28T10:38:16;3.40;98.90
23637;DHT22;11995;50.842;4.456;2023-02-28T10:40:43;3.20;98.90
23637;DHT22;11995;50.842;4.456;2023-02-28T10:43:18;3.20;98.80
23637;DHT22;11995;50.842;4.456;2023-02-28T10:48:42;3.40;97.30
23637;DHT22;11995;50.842;4.456;2023-02-28T10:51:13;3.40;97.40
23637;DHT22;11995;50.842;4.456;2023-02-28T10:53:48;3.30;97.60
23637;DHT22;11995;50.842;4.456;2023-02-28T10:56:22;3.30;98.50
23637;DHT22;11995;50.842;4.456;2023-02-28T11:01:34;3.30;98.50
23637;DHT22;11995;50.842;4.456;2023-02-28T11:03:54;3.20;98.50
23637;DHT22;11995;50.842;4.456;2023-02-28T11:06:26;3.20;98.60
23637;DHT22;11995;50.842;4.456;2023-02-28T11:09:02;3.20;98.50
23637;DHT22;11995;50.842;4.456;2023-02-28T11:11:27;3.20;98.90
23637;DHT22;11995;50.842;4.456;2023-02-28T11:14:03;3.20;97.50
23637;DHT22;11995;50.842;4.456;2023-02-28T11:16:37;3.20;97.50
23637;DHT22;11995;50.842;4.456;2023-02-28T11:19:06;3.30;97.40
23637;DHT22;11995;50.842;4.456;2023-02-28T11:21:36;3.30;97.50
23637;DHT22;11995;50.842;4.456;2023-02-28T11:24:21;3.40;96.80
23637;DHT22;11995;50.842;4.456;2023-02-28T11:26:48;3.50;97.00
23637;DHT22;11995;50.842;4.456;2023-02-28T11:29:22;3.60;97.40
23637;DHT22;11995;50.842;4.456;2023-02-28T11:34:37;3.70;96.90
23637;DHT22;11995;50.842;4.456;2023-02-28T11:37:15;3.50;97.00
23637;DHT22;11995;50.842;4.456;2023-02-28T11:39:39;3.50;97.20
23637;DHT22;11995;50.842;4.456;2023-02-28T11:42:30;3.40;97.40
23637;DHT22;11995;50.842;4.456;2023-02-28T11:45:17;3.30;97.70
23637;DHT22;11995;50.842;4.456;2023-02-28T11:50:57;3.40;97.80
23637;DHT22;11995;50.842;4.456;2023-02-28T11:53:48;3.30;97.80
23637;DHT22;11995;50.842;4.456;2023-02-28T11:56:31;3.50;97.80
23637;DHT22;11995;50.842;4.456;2023-02-28T12:01:58;3.90;97.60
23637;DHT22;11995;50.842;4.456;2023-02-28T12:04:44;4.00;97.10
23637;DHT22;11995;50.842;4.456;2023-02-28T12:10:16;4.20;95.60
23637;DHT22;11995;50.842;4.456;2023-02-28T12:15:46;4.20;95.30
23637;DHT22;11995;50.842;4.456;2023-02-28T12:18:26;4.00;94.50
23637;DHT22;11995;50.842;4.456;2023-02-28T12:21:01;4.10;94.80
23637;DHT22;11995;50.842;4.456;2023-02-28T12:23:48;4.00;94.00
23637;DHT22;11995;50.842;4.456;2023-02-28T12:29:12;4.00;94.00
23637;DHT22;11995;50.842;4.456;2023-02-28T12:31:42;4.20;94.10
23637;DHT22;11995;50.842;4.456;2023-02-28T12:34:18;4.20;93.20
23637;DHT22;11995;50.842;4.456;2023-02-28T12:36:41;4.30;93.50
23637;DHT22;11995;50.842;4.456;2023-02-28T12:39:23;4.40;93.70
23637;DHT22;11995;50.842;4.456;2023-02-28T12:42:03;4.30;93.20
23637;DHT22;11995;50.842;4.456;2023-02-28T12:44:44;4.20;93.40
23637;DHT22;11995;50.842;4.456;2023-02-28T12:47:14;4.10;93.00
23637;DHT22;11995;50.842;4.456;2023-02-28T12:49:56;4.20;93.40
23637;DHT22;11995;50.842;4.456;2023-02-28T12:52:37;4.20;92.50
23637;DHT22;11995;50.842;4.456;2023-02-28T12:55:21;4.10;92.10
23637;DHT22;11995;50.842;4.456;2023-02-28T12:57:58;4.10;92.40
23637;DHT22;11995;50.842;4.456;2023-02-28T13:00:24;4.20;92.70
23637;DHT22;11995;50.842;4.456;2023-02-28T13:05:46;4.10;92.30
23637;DHT22;11995;50.842;4.456;2023-02-28T13:08:31;4.10;92.70
23637;DHT22;11995;50.842;4.456;2023-02-28T13:10:45;4.20;93.10
23637;DHT22;11995;50.842;4.456;2023-02-28T13:13:18;4.10;92.50
23637;DHT22;11995;50.842;4.456;2023-02-28T13:16:06;4.10;92.40
23637;DHT22;11995;50.842;4.456;2023-02-28T13:18:42;4.10;92.20
23637;DHT22;11995;50.842;4.456;2023-02-28T13:21:22;4.10;91.90
23637;DHT22;11995;50.842;4.456;2023-02-28T13:23:57;4.30;92.20
23637;DHT22;11995;50.842;4.456;2023-02-28T13:34:38;4.40;91.10
23637;DHT22;11995;50.842;4.456;2023-02-28T13:39:55;4.30;91.00
23637;DHT22;11995;50.842;4.456;2023-02-28T13:58:55;4.60;90.90
23637;DHT22;11995;50.842;4.456;2023-02-28T14:01:28;4.50;91.10
23637;DHT22;11995;50.842;4.456;2023-02-28T14:06:29;4.50;90.90
23637;DHT22;11995;50.842;4.456;2023-02-28T14:11:37;4.70;91.20
23637;DHT22;11995;50.842;4.456;2023-02-28T14:14:05;4.70;90.90
23637;DHT22;11995;50.842;4.456;2023-02-28T14:16:47;4.50;90.50
23637;DHT22;11995;50.842;4.456;2023-02-28T14:19:22;4.40;90.30
23637;DHT22;11995;50.842;4.456;2023-02-28T14:22:12;4.40;90.70
23637;DHT22;11995;50.842;4.456;2023-02-28T14:33:23;4.70;90.80
23637;DHT22;11995;50.842;4.456;2023-02-28T14:36:20;4.60;91.00
23637;DHT22;11995;50.842;4.456;2023-02-28T14:38:53;4.50;90.90
23637;DHT22;11995;50.842;4.456;2023-02-28T14:41:33;4.50;90.90
23637;DHT22;11995;50.842;4.456;2023-02-28T14:44:23;4.50;90.80
23637;DHT22;11995;50.842;4.456;2023-02-28T14:46:54;4.50;90.70
23637;DHT22;11995;50.842;4.456;2023-02-28T14:49:30;4.50;90.80
23637;DHT22;11995;50.842;4.456;2023-02-28T14:52:04;4.50;91.20
23637;DHT22;11995;50.842;4.456;2023-02-28T14:54:32;4.50;90.90
23637;DHT22;11995;50.842;4.456;2023-02-28T14:56:59;4.50;91.40
23637;DHT22;11995;50.842;4.456;2023-02-28T14:59:31;4.50;91.40
23637;DHT22;11995;50.842;4.456;2023-02-28T15:02:18;4.60;91.90
23637;DHT22;11995;50.842;4.456;2023-02-28T15:05:01;4.60;91.80
23637;DHT22;11995;50.842;4.456;2023-02-28T15:07:29;4.70;91.30
23637;DHT22;11995;50.842;4.456;2023-02-28T15:10:16;4.60;91.50
23637;DHT22;11995;50.842;4.456;2023-02-28T15:12:53;4.50;91.40
23637;DHT22;11995;50.842;4.456;2023-02-28T15:15:17;4.60;91.70
23637;DHT22;11995;50.842;4.456;2023-02-28T15:17:49;4.50;91.60
23637;DHT22;11995;50.842;4.456;2023-02-28T15:20:17;4.50;91.60
23637;DHT22;11995;50.842;4.456;2023-02-28T15:22:47;4.50;91.90
23637;DHT22;11995;50.842;4.456;2023-02-28T15:25:18;4.50;92.00
23637;DHT22;11995;50.842;4.456;2023-02-28T15:27:55;4.40;92.30
23637;DHT22;11995;50.842;4.456;2023-02-28T15:30:30;4.50;92.60
23637;DHT22;11995;50.842;4.456;2023-02-28T15:33:04;4.60;93.10
23637;DHT22;11995;50.842;4.456;2023-02-28T15:35:33;4.70;92.30
23637;DHT22;11995;50.842;4.456;2023-02-28T15:38:24;4.60;92.40
23637;DHT22;11995;50.842;4.456;2023-02-28T15:40:54;4.50;92.40
23637;DHT22;11995;50.842;4.456;2023-02-28T15:43:31;4.50;92.50
23637;DHT22;11995;50.842;4.456;2023-02-28T15:46:10;4.50;92.70
23637;DHT22;11995;50.842;4.456;2023-02-28T15:51:27;4.50;92.60
23637;DHT22;11995;50.842;4.456;2023-02-28T15:54:06;4.50;92.60
23637;DHT22;11995;50.842;4.456;2023-02-28T15:56:51;4.50;92.80
23637;DHT22;11995;50.842;4.456;2023-02-28T15:59:30;4.60;92.90
23637;DHT22;11995;50.842;4.456;2023-02-28T16:07:38;4.80;92.70
23637;DHT22;11995;50.842;4.456;2023-02-28T16:10:08;4.70;92.80
23637;DHT22;11995;50.842;4.456;2023-02-28T16:12:37;4.50;92.30
23637;DHT22;11995;50.842;4.456;2023-02-28T16:15:23;4.50;92.90
23637;DHT22;11995;50.842;4.456;2023-02-28T16:17:53;4.60;93.20
23637;DHT22;11995;50.842;4.456;2023-02-28T16:20:26;4.80;92.80
23637;DHT22;11995;50.842;4.456;2023-02-28T16:22:55;4.70;93.20
23637;DHT22;11995;50.842;4.456;2023-02-28T16:25:29;4.50;93.30
23637;DHT22;11995;50.842;4.456;2023-02-28T16:27:56;4.50;93.60
23637;DHT22;11995;50.842;4.456;2023-02-28T16:30:26;4.50;93.90
23637;DHT22;11995;50.842;4.456;2023-02-28T16:32:55;4.40;93.70
23637;DHT22;11995;50.842;4.456;2023-02-28T16:35:25;4.40;94.00
23637;DHT22;11995;50.842;4.456;2023-02-28T16:37:53;4.30;93.80
23637;DHT22;11995;50.842;4.456;2023-02-28T16:40:24;4.30;94.00
23637;DHT22;11995;50.842;4.456;2023-02-28T16:42:57;4.20;94.00
23637;DHT22;11995;50.842;4.456;2023-02-28T16:45:27;4.20;94.30
23637;DHT22;11995;50.842;4.456;2023-02-28T16:47:55;4.20;94.30
23637;DHT22;11995;50.842;4.456;2023-02-28T16:50:28;4.10;94.40
23637;DHT22;11995;50.842;4.456;2023-02-28T16:52:57;4.20;94.50
23637;DHT22;11995;50.842;4.456;2023-02-28T16:55:26;4.20;94.70
23637;DHT22;11995;50.842;4.456;2023-02-28T16:57:54;4.20;95.00
23637;DHT22;11995;50.842;4.456;2023-02-28T17:00:23;4.20;95.10
23637;DHT22;11995;50.842;4.456;2023-02-28T17:02:51;4.40;95.40
23637;DHT22;11995;50.842;4.456;2023-02-28T17:05:19;4.40;94.70
23637;DHT22;11995;50.842;4.456;2023-02-28T17:07:49;4.30;95.00
23637;DHT22;11995;50.842;4.456;2023-02-28T17:10:23;4.10;95.20
23637;DHT22;11995;50.842;4.456;2023-02-28T17:12:51;4.10;95.50
23637;DHT22;11995;50.842;4.456;2023-02-28T17:15:19;4.10;95.30
23637;DHT22;11995;50.842;4.456;2023-02-28T17:17:48;4.00;95.30
23637;DHT22;11995;50.842;4.456;2023-02-28T17:20:22;4.00;95.20
23637;DHT22;11995;50.842;4.456;2023-02-28T17:22:49;4.00;95.60
23637;DHT22;11995;50.842;4.456;2023-02-28T17:25:23;4.10;95.30
23637;DHT22;11995;50.842;4.456;2023-02-28T17:27:51;4.10;95.10
23637;DHT22;11995;50.842;4.456;2023-02-28T17:30:21;4.00;95.10
23637;DHT22;11995;50.842;4.456;2023-02-28T17:32:50;4.00;95.40
23637;DHT22;11995;50.842;4.456;2023-02-28T17:35:17;4.00;95.40
23637;DHT22;11995;50.842;4.456;2023-02-28T17:37:45;3.90;95.60
23637;DHT22;11995;50.842;4.456;2023-02-28T17:40:17;3.90;95.80
23637;DHT22;11995;50.842;4.456;2023-02-28T17:42:44;3.80;95.70
23637;DHT22;11995;50.842;4.456;2023-02-28T17:45:13;3.80;96.10
23637;DHT22;11995;50.842;4.456;2023-02-28T17:47:45;4.00;95.80
23637;DHT22;11995;50.842;4.456;2023-02-28T17:50:16;3.90;95.80
23637;DHT22;11995;50.842;4.456;2023-02-28T17:52:44;3.90;96.10
23637;DHT22;11995;50.842;4.456;2023-02-28T17:55:18;4.00;95.80
23637;DHT22;11995;50.842;4.456;2023-02-28T17:57:42;3.90;95.80
23637;DHT22;11995;50.842;4.456;2023-02-28T18:00:12;4.00;96.10
23637;DHT22;11995;50.842;4.456;2023-02-28T18:02:42;4.00;95.90
23637;DHT22;11995;50.842;4.456;2023-02-28T18:05:10;4.10;96.10
23637;DHT22;11995;50.842;4.456;2023-02-28T18:07:38;4.00;95.80
23637;DHT22;11995;50.842;4.456;2023-02-28T18:10:07;3.90;96.40
23637;DHT22;11995;50.842;4.456;2023-02-28T18:12:35;4.00;96.50